• Join FlightAware (Why Join?)
  • Login
  • US Flag 
05:07PM EDT


 

Airport Tracker/Info


-or-


 

Live Flight TrackerFlight Track Log ✈ ACA532 ✈ 06-May-2012 ✈ KPDX - CYYZ

Flight Track Log - Related Links

Times and Time Zones

All times are in EDT time to prevent confusion due to time zone crossing. See the ACA532 flight status page for this flight to view local times or setup timezone preferences in your user account.

Time Position Orientation Groundspeed Altitude Reporting Facility
EDT Latitude Longitude Course Direction KTS MPH feet Rate Location/Type
11:13AM 45.5797 -122.5600 84° East 160 184 900  Level Seattle Center
11:17AM 45.6053 -122.2089 60° Northeast 280 322 10,300 2,100 Climbing Seattle Center
11:18AM 45.6500 -122.0992 61° Northeast 320 368 11,800 1,860 Climbing Seattle Center
11:19AM 45.6967 -121.9778 62° Northeast 346 398 14,200 2,280 Climbing Seattle Center
11:20AM 45.7450 -121.8492 89° East 355 409 16,500 1,860 Climbing Seattle Center
11:21AM 45.7461 -121.6956 91° East 382 440 18,100 1,860 Climbing Seattle Center
11:22AM 45.7447 -121.5111 91° East 388 447 20,400 1,920 Climbing Seattle Center
11:23AM 45.7433 -121.3508 90° East 398 458 22,000 1,440 Climbing Seattle Center
11:25AM 45.7411 -121.0500 91° East 423 487 24,800 1,320 Climbing Seattle Center
11:26AM 45.7378 -120.8444 91° East 430 495 26,200 1,260 Climbing Seattle Center
11:27AM 45.7353 -120.6672 91° East 441 507 27,400 1,260 Climbing Seattle Center
11:30AM 45.7267 -120.1361 92° East 445 512 31,400 1,320 Climbing Seattle Center
11:31AM 45.7228 -119.9644 92° East 438 504 32,800 1,080 Climbing Seattle Center
11:32AM 45.7186 -119.7956 92° East 430 495 33,700 780 Climbing Seattle Center
11:33AM 45.7153 -119.6275 92° East 426 490 34,400 660 Climbing Seattle Center
11:34AM 45.7117 -119.4578 92° East 426 490 35,100 540 Climbing Seattle Center
11:35AM 45.7064 -119.2883 92° East 427 491 35,600 540 Climbing Seattle Center
11:36AM 45.7014 -119.0828 92° East 430 495 36,200 540 Climbing Seattle Center
11:37AM 45.6981 -118.9111 85° East 432 497 36,700 360 Climbing Seattle Center
11:38AM 45.7078 -118.7450 86° East 424 488 37,000 120 Climbing Seattle Center
11:39AM 45.7167 -118.5797 86° East 418 481 37,000  Level Seattle Center
11:40AM 45.7247 -118.4103 86° East 424 488 37,000  Level Seattle Center
11:41AM 45.7325 -118.2433 86° East 424 488 37,000  Level Seattle Center
11:42AM 45.7403 -118.0769 86° East 421 484 37,000  Level Seattle Center
11:43AM 45.7475 -117.9100 86° East 423 487 37,000  Level Seattle Center
11:44AM 45.7553 -117.7450 86° East 420 483 37,000  Level Seattle Center
11:45AM 45.7628 -117.5794 86° East 419 482 37,000  Level Seattle Center
11:46AM 45.7703 -117.4114 87° East 422 486 37,000  Level Seattle Center
11:47AM 45.7769 -117.2442 87° East 422 486 37,000  Level Seattle Center
11:48AM 45.7831 -117.0764 87° East 425 489 37,000  Level Seattle Center
11:49AM 45.7906 -116.8722 87° East 428 493 37,000  Level Seattle Center
11:50AM 45.7958 -116.7006 87° East 432 497 37,000  Level Seattle Center
11:51AM 45.8014 -116.5267 87° East 436 502 37,000  Level Seattle Center
11:52AM 45.8075 -116.3514 88° East 440 506 37,000  Level Seattle Center
11:53AM 45.8125 -116.1756 87° East 443 510 37,000  Level Seattle Center
11:54AM 45.8181 -115.9981 88° East 446 513 37,000  Level Seattle Center
11:55AM 45.8233 -115.8178 88° East 451 519 37,000  Level Seattle Center
11:56AM 45.8281 -115.6342 88° East 458 527 37,000  Level Seattle Center
11:57AM 45.8333 -115.4208 88° East 460 529 37,000  Level Seattle Center
11:58AM 45.8372 -115.2481 88° East 456 525 37,000  Level Seattle Center
11:59AM 45.8403 -115.0769 88° East 451 519 37,000  Level Seattle Center
12:00PM 45.8444 -114.8775 88° East 449 517 37,000  Level Seattle Center
12:01PM 45.8475 -114.7042 89° East 451 519 37,000  Level Seattle Center
12:02PM 45.8500 -114.5211 89° East 452 520 37,000  Level Seattle Center
12:04PM 45.8547 -114.2378 89° East 455 524 37,000  Level Salt Lake Center
12:05PM 45.8564 -114.0561 89° East 458 527 37,000  Level Salt Lake Center
12:06PM 45.8578 -113.8739 89° East 459 528 37,000  Level Salt Lake Center
12:07PM 45.8594 -113.6906 89° East 461 531 37,000  Level Salt Lake Center
12:08PM 45.8608 -113.5094 89° East 459 528 37,000  Level Salt Lake Center
12:09PM 45.8622 -113.3247 90° East 462 532 37,000  Level Salt Lake Center
12:10PM 45.8628 -113.1061 90° East 459 528 37,000  Level Salt Lake Center
12:11PM 45.8633 -112.9261 90° East 454 522 37,000  Level Salt Lake Center
12:12PM 45.8633 -112.7450 90° East 455 524 37,000  Level Salt Lake Center
12:13PM 45.8622 -112.5611 90° East 459 528 37,000  Level Salt Lake Center
12:14PM 45.8622 -112.3814 90° East 454 522 37,000  Level Salt Lake Center
12:15PM 45.8614 -112.2014 90° East 452 520 37,000  Level Salt Lake Center
12:16PM 45.8608 -112.0208 90° East 452 520 37,000  Level Salt Lake Center
12:17PM 45.8611 -111.8406 90° East 453 521 37,000  Level Salt Lake Center
12:18PM 45.8603 -111.6239 90° East 453 521 37,000  Level Salt Lake Center
12:19PM 45.8597 -111.4461 90° East 447 514 37,000  Level Salt Lake Center
12:20PM 45.8592 -111.2622 91° East 452 520 37,000  Level Salt Lake Center
12:21PM 45.8572 -111.0708 91° East 457 526 37,000  Level Salt Lake Center
12:22PM 45.8553 -110.8869 91° East 454 522 37,000  Level Salt Lake Center
12:23PM 45.8533 -110.7044 91° East 455 524 37,000  Level Salt Lake Center
12:24PM 45.8506 -110.5322 91° East 459 528 37,000  Level Salt Lake Center
12:25PM 45.8472 -110.3286 91° East 458 527 37,000  Level Salt Lake Center
12:26PM 45.8447 -110.1542 92° East 457 526 37,000  Level Salt Lake Center
12:28PM 45.8408 -109.9508 91° East 457 526 37,000  Level Salt Lake Center
12:29PM 45.8389 -109.7747 91° East 459 528 37,000  Level Salt Lake Center
12:30PM 45.8353 -109.5697 92° East 460 529 37,000  Level Salt Lake Center
12:31PM 45.8303 -109.3914 92° East 465 535 37,000  Level Salt Lake Center
12:32PM 45.8258 -109.2128 92° East 467 537 37,000  Level Salt Lake Center
12:33PM 45.8200 -109.0031 92° East 469 540 37,000  Level Salt Lake Center
12:34PM 45.8147 -108.8239 91° East 470 541 37,000  Level Salt Lake Center
12:35PM 45.8108 -108.6164 83° East 465 535 37,000  Level Salt Lake Center
12:36PM 45.8267 -108.4336 84° East 478 550 37,000  Level Salt Lake Center
12:37PM 45.8389 -108.2542 83° East 474 545 37,000  Level Salt Lake Center
12:38PM 45.8564 -108.0414 84° East 478 550 37,000  Level Salt Lake Center
12:39PM 45.8706 -107.8592 84° East 479 551 37,000  Level Salt Lake Center
12:40PM 45.8864 -107.6469 84° East 478 550 37,000  Level Salt Lake Center
12:41PM 45.9008 -107.4619 84° East 483 556 37,000  Level Salt Lake Center
12:42PM 45.9164 -107.2458 84° East 485 558 37,000  Level Salt Lake Center
12:43PM 45.9303 -107.0600 84° East 487 560 37,000  Level Salt Lake Center
12:44PM 45.9433 -106.8728 84° East 490 564 37,000  Level Salt Lake Center
12:45PM 45.9583 -106.6572 85° East 488 562 37,000  Level Salt Lake Center
12:46PM 45.9692 -106.4725 85° East 486 559 37,000  Level Salt Lake Center
12:47PM 45.9819 -106.2592 85° East 482 555 37,000  Level Salt Lake Center
12:48PM 45.9939 -106.0772 84° East 480 552 37,000  Level Salt Lake Center
12:49PM 46.0103 -105.8625 81° East 482 555 37,000  Level Salt Lake Center
12:50PM 46.0314 -105.6792 80° East 485 558 37,000  Level Salt Lake Center
12:51PM 46.0536 -105.4983 81° East 483 556 37,000  Level Salt Lake Center
12:52PM 46.0758 -105.2875 81° East 480 552 37,000  Level Salt Lake Center
12:53PM 46.0953 -105.1050 82° East 480 552 37,000  Level Salt Lake Center
12:54PM 46.1169 -104.8892 82° East 484 557 37,000  Level Salt Lake Center
12:55PM 46.1350 -104.7047 82° East 485 558 37,000  Level Salt Lake Center
12:56PM 46.1558 -104.4883 82° East 487 560 37,000  Level Salt Lake Center
12:57PM 46.1747 -104.2978 82° East 492 566 37,000  Level Salt Lake Center
12:58PM 46.1925 -104.1014 83° East 495 570 37,000  Level Salt Lake Center
12:59PM 46.2097 -103.9061 82° East 495 570 37,000  Level Salt Lake Center
01:00PM 46.2281 -103.7100 83° East 495 570 37,000  Level Salt Lake Center
01:01PM 46.2456 -103.5122 83° East 498 573 37,000  Level Salt Lake Center
01:03PM 46.2628 -103.3172 83° East 496 571 37,000  Level Salt Lake Center
01:04PM 46.2819 -103.0819 84° East 495 570 37,000  Level Salt Lake Center
01:05PM 46.2972 -102.8850 83° East 495 570 37,000  Level Salt Lake Center
01:06PM 46.3133 -102.6897 83° East 495 570 37,000  Level Salt Lake Center
01:07PM 46.3289 -102.4953 83° East 492 566 37,000  Level Salt Lake Center
01:08PM 46.3444 -102.2983 83° East 492 566 37,000  Level Salt Lake Center
01:09PM 46.3600 -102.1053 83° East 489 563 37,000  Level Minneapolis Center
01:10PM 46.3767 -101.9117 84° East 489 563 37,000  Level Minneapolis Center
01:11PM 46.3914 -101.7117 84° East 494 568 37,000  Level Minneapolis Center
01:12PM 46.4061 -101.5086 85° East 494 568 37,000  Level Minneapolis Center
01:13PM 46.4178 -101.3111 84° East 494 568 37,000  Level Minneapolis Center
01:14PM 46.4311 -101.1167 84° East 494 568 37,000  Level Minneapolis Center
01:15PM 46.4444 -100.9161 84° East 494 568 37,000  Level Minneapolis Center
01:16PM 46.4597 -100.7128 85° East 494 568 37,000  Level Minneapolis Center
01:17PM 46.4722 -100.5122 85° East 494 568 37,000  Level Minneapolis Center
01:18PM 46.4844 -100.3114 85° East 494 568 37,000  Level Minneapolis Center
01:19PM 46.4967 -100.1072 83° East 501 577 37,000  Level Minneapolis Center
01:20PM 46.5125 -99.9039 82° East 501 577 37,000  Level Minneapolis Center
01:21PM 46.5319 -99.7036 83° East 501 577 37,000  Level Minneapolis Center
01:22PM 46.5489 -99.5061 83° East 495 570 37,000  Level Minneapolis Center
01:23PM 46.5656 -99.3083 83° East 495 570 37,000  Level Minneapolis Center
01:24PM 46.5819 -99.1106 82° East 495 570 37,000  Level Minneapolis Center
01:25PM 46.5997 -98.9128 82° East 495 570 37,000  Level Minneapolis Center
01:26PM 46.6172 -98.7208 84° East 490 564 37,000  Level Minneapolis Center
01:27PM 46.6303 -98.5253 83° East 485 558 37,000  Level Minneapolis Center
01:28PM 46.6472 -98.3300 85° East 485 558 37,000  Level Minneapolis Center
01:29PM 46.6597 -98.1314 83° East 485 558 37,000  Level Minneapolis Center
01:30PM 46.6758 -97.9361 84° East 480 552 37,000  Level Minneapolis Center
01:31PM 46.6894 -97.7433 83° East 480 552 37,000  Level Minneapolis Center
01:32PM 46.7050 -97.5475 85° East 480 552 37,000  Level Minneapolis Center
01:33PM 46.7158 -97.3544 83° East 480 552 37,000  Level Minneapolis Center
01:34PM 46.7328 -97.1589 85° East 480 552 37,000  Level Minneapolis Center
01:35PM 46.7453 -96.9628 85° East 475 547 37,000  Level Minneapolis Center
01:36PM 46.7575 -96.7664 88° East 481 554 37,000  Level Minneapolis Center
01:37PM 46.7608 -96.5725 88° East 475 547 37,000  Level Minneapolis Center
01:38PM 46.7658 -96.3881 88° East 468 539 37,000  Level Minneapolis Center
01:39PM 46.7706 -96.1972 87° East 463 533 37,000  Level Minneapolis Center
01:40PM 46.7767 -96.0156 89° East 458 527 37,000  Level Minneapolis Center
01:41PM 46.7786 -95.8308 88° East 458 527 37,000  Level Minneapolis Center
01:42PM 46.7825 -95.6431 87° East 458 527 37,000  Level Minneapolis Center
01:43PM 46.7881 -95.4583 89° East 458 527 37,000  Level Minneapolis Center
01:44PM 46.7911 -95.2703 89° East 458 527 37,000  Level Minneapolis Center
01:45PM 46.7939 -95.0825 89° East 463 533 37,000  Level Minneapolis Center
01:46PM 46.7967 -94.8914 89° East 458 527 37,000  Level Minneapolis Center
01:47PM 46.7989 -94.7036 89° East 458 527 37,000  Level Minneapolis Center
01:48PM 46.8008 -94.5094 89° East 463 533 37,000  Level Minneapolis Center
01:49PM 46.8025 -94.3183 89° East 463 533 37,000  Level Minneapolis Center
01:50PM 46.8036 -94.1275 89° East 463 533 37,000  Level Minneapolis Center
01:51PM 46.8047 -93.9364 90° East 463 533 37,000  Level Minneapolis Center
01:52PM 46.8053 -93.7453 90° East 463 533 37,000  Level Minneapolis Center
01:53PM 46.8058 -93.5544 90° East 463 533 37,000  Level Minneapolis Center
01:54PM 46.8058 -93.3603 90° East 463 533 37,000  Level Minneapolis Center
01:55PM 46.8056 -93.1661 90° East 468 539 37,000  Level Minneapolis Center
01:58PM 46.8047 -92.5717 91° East 473 544 37,000 -60 Level Minneapolis Center
01:59PM 46.8031 -92.3808 94° East 473 544 36,900  Descending Minneapolis Center
02:00PM 46.7928 -92.1900 112° Southeast 473 544 37,000  Climbing Minneapolis Center
02:03PM 46.6483 -91.6700 113° Southeast 458 527 37,000  Level Minneapolis Center
02:04PM 46.6044 -91.5175 113° Southeast 458 527 37,000  Level Minneapolis Center
02:05PM 46.5556 -91.3469 113° Southeast 453 521 37,000  Level Minneapolis Center
02:06PM 46.5044 -91.1739 112° Southeast 453 521 37,000  Level Minneapolis Center
02:07PM 46.4572 -91.0042 114° Southeast 453 521 37,000  Level Minneapolis Center
02:08PM 46.4056 -90.8347 113° Southeast 453 521 37,000  Level Minneapolis Center
02:09PM 46.3556 -90.6628 114° Southeast 453 521 37,000  Level Minneapolis Center
02:10PM 46.3033 -90.4939 113° Southeast 453 521 37,000  Level Minneapolis Center
02:11PM 46.2531 -90.3256 113° Southeast 453 521 37,000  Level Minneapolis Center
02:12PM 46.2025 -90.1544 114° Southeast 458 527 37,000  Level Minneapolis Center
02:13PM 46.1517 -89.9867 114° Southeast 458 527 37,000  Level Minneapolis Center
02:14PM 46.0983 -89.8161 113° Southeast 458 527 37,000  Level Minneapolis Center
02:15PM 46.0492 -89.6458 114° Southeast 458 527 37,000  Level Minneapolis Center
02:16PM 45.9928 -89.4614 115° Southeast 458 527 37,000  Level Minneapolis Center
02:17PM 45.9367 -89.2922 113° Southeast 457 526 37,000  Level Minneapolis Center
02:18PM 45.8917 -89.1433 114° Southeast 457 526 37,000  Level Minneapolis Center
02:19PM 45.8344 -88.9569 117° Southeast 452 520 37,000  Level Minneapolis Center
02:20PM 45.7756 -88.7919 114° Southeast 458 527 37,000  Level Minneapolis Center
02:21PM 45.7250 -88.6264 115° Southeast 458 527 37,000  Level Minneapolis Center
02:22PM 45.6697 -88.4558 116° Southeast 458 527 37,000  Level Minneapolis Center
02:23PM 45.6142 -88.2914 114° Southeast 458 527 37,000  Level Minneapolis Center
02:24PM 45.5631 -88.1297 115° Southeast 452 520 37,000  Level Minneapolis Center
02:25PM 45.5167 -87.9858 117° Southeast 452 520 37,000  Level Minneapolis Center
02:26PM 45.4583 -87.8197 115° Southeast 452 520 37,000  Level Minneapolis Center
02:27PM 45.4042 -87.6564 115° Southeast 452 520 37,000  Level Minneapolis Center
02:28PM 45.3497 -87.4875 116° Southeast 457 526 37,000  Level Minneapolis Center
02:29PM 45.2928 -87.3222 116° Southeast 457 526 37,000  Level Minneapolis Center
02:30PM 45.2358 -87.1572 116° Southeast 457 526 37,000  Level Minneapolis Center
02:31PM 45.1806 -86.9950 116° Southeast 457 526 37,000  Level Minneapolis Center
02:32PM 45.1231 -86.8308 117° Southeast 457 526 37,000  Level Minneapolis Center
02:33PM 45.0581 -86.6469 116° Southeast 457 526 37,000  Level Minneapolis Center
02:34PM 44.9997 -86.4806 117° Southeast 462 532 37,000  Level Minneapolis Center
02:35PM 44.9392 -86.3117 116° Southeast 473 544 37,000  Level Minneapolis Center
02:36PM 44.8878 -86.1625 116° Southeast 478 550 37,000  Level Minneapolis Center
02:37PM 44.8286 -85.9939 118° Southeast 473 544 37,000  Level Minneapolis Center
02:38PM 44.7678 -85.8319 116° Southeast 473 544 37,000  Level Minneapolis Center
02:39PM 44.7003 -85.6392 129° Southeast 473 544 37,000  Level Minneapolis Center
02:40PM 44.6194 -85.4981 142° Southeast 463 533 37,000  Level Minneapolis Center
02:41PM 44.5197 -85.3894 142° Southeast 455 524 37,000  Level Minneapolis Center
02:42PM 44.4200 -85.2811 142° Southeast 455 524 37,000  Level Minneapolis Center
02:43PM 44.3222 -85.1756 142° Southeast 455 524 37,000  Level Minneapolis Center
02:44PM 44.2225 -85.0681 142° Southeast 449 517 37,000  Level Minneapolis Center
02:47PM 43.8453 -84.6589 142° Southeast 454 522 37,000  Level Cleveland Center
02:48PM 43.7447 -84.5486 117° Southeast 454 522 37,000  Level Cleveland Center
02:49PM 43.6856 -84.3897 106° East 454 522 37,000  Level Cleveland Center
02:50PM 43.6475 -84.2125 93° East 461 531 37,000  Level Cleveland Center
02:51PM 43.6406 -84.0283 94° East 459 528 37,000  Level Cleveland Center
02:52PM 43.6328 -83.8614 93° East 476 548 37,000  Level Cleveland Center
02:53PM 43.6239 -83.6575 92° East 487 560 37,000  Level Cleveland Center
02:54PM 43.6181 -83.4736 92° East 487 560 37,000  Level Cleveland Center
02:55PM 43.6122 -83.2897 93° East 481 554 37,000  Level Cleveland Center
02:56PM 43.6039 -83.1003 94° East 489 563 37,000 -960 Level Cleveland Center
02:57PM 43.5933 -82.9106 92° East 489 563 35,100 -2,340 Descending Cleveland Center
02:58PM 43.5886 -82.7269 95° East 489 563 32,400 -2,700 Descending Cleveland Center
02:59PM 43.5772 -82.5431 93° East 483 556 29,800 -1,740 Descending Cleveland Center
03:00PM 43.5697 -82.3594 95° East 478 550 29,000 -420 Descending Cleveland Center
03:01PM 43.5597 -82.1903 92° East 486 559 29,000  Level Cleveland Center
03:03PM 43.5500 -81.8833 97° East 490 564 29,000 -420 Level Toronto Center
03:04PM 43.5333 -81.7000 97° East 480 552 28,000 -1,020 Descending Toronto Center
03:05PM 43.5167 -81.5167 98° East 480 552 27,000 -1,020 Descending Toronto Center
03:06PM 43.5000 -81.3500 90° East 470 541 26,000 -1,020 Descending Toronto Center
03:07PM 43.5000 -81.1667 97° East 460 529 25,000 -1,020 Descending Toronto Center
03:08PM 43.4833 -80.9833 99° East 450 518 24,000 -1,020 Descending Toronto Center
03:09PM 43.4667 -80.8333 90° East 440 506 23,000 -1,500 Descending Toronto Center
03:10PM 43.4667 -80.6667 90° East 420 483 21,100 -2,040 Descending Toronto Center
03:11PM 43.4667 -80.5333 98° East 410 472 19,000 -2,040 Descending Toronto Center
03:12PM 43.4500 -80.3667 68° East 400 460 17,100 -1,680 Descending Toronto Center
03:13PM 43.4833 -80.2500 71° East 360 414 15,700 -1,380 Descending Toronto Center
03:14PM 43.5167 -80.1167 68° East 330 380 14,400 -1,560 Descending Toronto Center
03:15PM 43.5500 -80.0000 68° East 330 380 12,600 -1,800 Descending Toronto Center
03:16PM 43.5833 -79.8833 90° East 320 368 10,900 -1,500 Descending Toronto Center
03:17PM 43.5833 -79.7667 90° East 310 357 9,600 -1,320 Descending Toronto Center
03:18PM 43.5833 -79.6500 90° East 290 334 8,300 -1,200 Descending Toronto Center
03:19PM 43.5833 -79.5667 55° Northeast 270 311 7,300 -1,020 Descending Toronto Center
03:20PM 43.6167 -79.5000 55° Northeast 240 276 6,300 -960 Descending Toronto Center
03:21PM 43.6500 -79.4333 50° Northeast 220 253 5,400 -960 Descending Toronto Center
03:22PM 43.7000 -79.3500 324° Northwest 210 242 4,400 -840 Descending Toronto Center
03:23PM 43.7333 -79.3833 270° West 190 219 3,800 -780 Descending Toronto Center
03:24PM 43.7333 -79.4500 270° West 190 219 2,900 -900 Descending Toronto Center